createdAt,value
2022-12-24T00:02:11.171Z,3.16
2022-12-24T00:05:00.887Z,3.16
2022-12-24T00:07:47.507Z,3.12
2022-12-24T00:10:33.141Z,3.11
2022-12-24T00:13:19.118Z,3.14
2022-12-24T00:16:05.207Z,3.11
2022-12-24T00:18:50.927Z,3.18
2022-12-24T00:21:36.601Z,3.19
2022-12-24T00:24:22.805Z,3.26
2022-12-24T00:27:08.904Z,3.28
2022-12-24T00:29:54.623Z,3.33
2022-12-24T00:32:40.513Z,3.36
2022-12-24T00:35:26.101Z,3.38
2022-12-24T00:38:11.644Z,3.39
2022-12-24T00:41:02.046Z,3.43
2022-12-24T00:43:47.861Z,3.44
2022-12-24T00:46:34.591Z,3.49
2022-12-24T00:49:20.323Z,3.50
2022-12-24T00:52:05.961Z,3.47
2022-12-24T00:54:52.044Z,3.40
2022-12-24T00:57:38.007Z,3.31
2022-12-24T01:00:23.679Z,3.33
2022-12-24T01:03:10.042Z,3.33
2022-12-24T01:05:55.669Z,3.36
2022-12-24T01:08:41.683Z,3.37
2022-12-24T01:11:27.511Z,3.34
2022-12-24T01:14:13.182Z,3.38
2022-12-24T01:16:59.079Z,3.40
2022-12-24T01:19:44.763Z,3.38
2022-12-24T01:22:30.399Z,3.41
2022-12-24T01:25:16.101Z,3.39
2022-12-24T01:28:01.660Z,3.37
2022-12-24T01:30:48.286Z,3.34
2022-12-24T01:33:34.340Z,3.35
2022-12-24T01:36:20.035Z,3.31
2022-12-24T01:39:05.922Z,3.31
2022-12-24T01:42:10.803Z,3.28
2022-12-24T01:44:56.789Z,3.24
2022-12-24T01:47:42.401Z,3.19
2022-12-24T01:50:28.050Z,3.10
2022-12-24T01:53:14.873Z,3.07
2022-12-24T01:56:00.881Z,3.02
2022-12-24T01:58:48.798Z,3.06
2022-12-24T02:01:34.900Z,3.07
2022-12-24T02:04:36.494Z,3.04
2022-12-24T02:07:22.508Z,3.10
2022-12-24T02:10:11.627Z,3.09
2022-12-24T02:12:58.392Z,3.12
2022-12-24T02:16:00.230Z,3.10
2022-12-24T02:19:20.181Z,3.10
2022-12-24T02:22:27.874Z,3.10
2022-12-24T02:25:20.374Z,3.11
2022-12-24T02:28:09.073Z,3.12
2022-12-24T02:30:59.627Z,3.10
2022-12-24T02:33:59.637Z,3.05
2022-12-24T02:36:49.705Z,3.08
2022-12-24T02:39:57.790Z,3.08
2022-12-24T02:42:48.643Z,3.10
2022-12-24T02:45:35.633Z,3.07
2022-12-24T02:48:22.706Z,3.06
2022-12-24T02:51:09.939Z,3.05
2022-12-24T02:53:55.940Z,3.06
2022-12-24T02:56:56.837Z,3.05
2022-12-24T02:59:49.258Z,3.07
2022-12-24T03:02:38.271Z,3.06
2022-12-24T03:05:42.848Z,3.03
2022-12-24T03:09:23.409Z,3.00
2022-12-24T03:12:15.635Z,2.97
2022-12-24T03:15:01.513Z,2.96
2022-12-24T03:17:50.301Z,2.93
2022-12-24T03:20:40.979Z,2.91
2022-12-24T03:23:26.751Z,2.90
2022-12-24T03:26:14.851Z,2.89
2022-12-24T03:29:00.549Z,2.88
2022-12-24T03:31:54.930Z,2.90
2022-12-24T03:34:41.115Z,2.92
2022-12-24T03:37:27.408Z,2.92
2022-12-24T03:40:13.622Z,2.92
2022-12-24T03:42:59.444Z,2.92
2022-12-24T03:45:45.095Z,2.91
2022-12-24T03:48:32.970Z,2.95
2022-12-24T03:51:21.630Z,2.98
2022-12-24T03:54:07.497Z,3.01
2022-12-24T03:56:53.350Z,3.04
2022-12-24T03:59:38.969Z,3.05
2022-12-24T04:02:24.936Z,3.08
2022-12-24T04:05:16.344Z,3.10
2022-12-24T04:08:02.240Z,3.10
2022-12-24T04:10:47.868Z,3.10
2022-12-24T04:13:33.546Z,3.11
2022-12-24T04:16:19.315Z,3.11
2022-12-24T04:19:05.039Z,3.14
2022-12-24T04:21:51.175Z,3.14
2022-12-24T04:24:36.876Z,3.16
2022-12-24T04:27:30.178Z,3.18
2022-12-24T04:30:18.486Z,3.14
2022-12-24T04:33:04.378Z,3.18
2022-12-24T04:35:50.024Z,3.13
2022-12-24T04:38:35.755Z,3.14
2022-12-24T04:41:24.609Z,3.13
2022-12-24T04:44:10.813Z,3.16
2022-12-24T04:46:56.467Z,3.20
2022-12-24T04:49:42.099Z,3.21
2022-12-24T04:52:28.308Z,3.21
2022-12-24T04:55:14.181Z,3.18
2022-12-24T04:57:59.932Z,3.15
2022-12-24T05:00:45.525Z,3.17
2022-12-24T05:03:31.289Z,3.18
2022-12-24T05:06:20.041Z,3.18
2022-12-24T05:09:06.014Z,3.17
2022-12-24T05:11:51.800Z,3.20
2022-12-24T05:14:37.517Z,3.19
2022-12-24T05:17:23.288Z,3.22
2022-12-24T05:20:09.163Z,3.22
2022-12-24T05:23:13.524Z,3.25
2022-12-24T05:26:18.633Z,3.24
2022-12-24T05:29:05.567Z,3.26
2022-12-24T05:31:51.367Z,3.25
2022-12-24T05:34:37.002Z,3.19
2022-12-24T05:37:22.676Z,3.23
2022-12-24T05:40:08.877Z,3.22
2022-12-24T05:42:54.872Z,3.28
2022-12-24T05:45:40.453Z,3.31
2022-12-24T05:48:26.038Z,3.32
2022-12-24T05:51:13.107Z,3.33
2022-12-24T05:53:59.174Z,3.35
2022-12-24T05:56:44.906Z,3.38
2022-12-24T05:59:30.578Z,3.36
2022-12-24T06:02:16.200Z,3.36
2022-12-24T06:05:02.068Z,3.32
2022-12-24T06:07:48.192Z,3.29
2022-12-24T06:10:33.839Z,3.25
2022-12-24T06:13:19.470Z,3.22
2022-12-24T06:16:07.116Z,3.23
2022-12-24T06:18:53.236Z,3.19
2022-12-24T06:21:39.152Z,3.15
2022-12-24T06:24:24.924Z,3.19
2022-12-24T06:27:10.859Z,3.23
2022-12-24T06:29:56.966Z,3.28
2022-12-24T06:32:42.593Z,3.33
2022-12-24T06:35:28.246Z,3.33
2022-12-24T06:38:14.842Z,3.38
2022-12-24T06:41:00.559Z,3.41
2022-12-24T06:43:47.233Z,3.43
2022-12-24T06:46:32.835Z,3.49
2022-12-24T06:49:18.607Z,3.52
2022-12-24T06:52:04.527Z,3.56
2022-12-24T06:54:50.536Z,3.57
2022-12-24T06:57:36.425Z,3.58
2022-12-24T07:00:22.207Z,3.59
2022-12-24T07:03:07.857Z,3.60
2022-12-24T07:05:54.358Z,3.59
2022-12-24T07:08:40.526Z,3.63
2022-12-24T07:11:26.751Z,3.65
2022-12-24T07:14:12.666Z,3.65
2022-12-24T07:16:59.397Z,3.67
2022-12-24T07:19:45.659Z,3.72
2022-12-24T07:22:31.657Z,3.73
2022-12-24T07:25:17.562Z,3.78
2022-12-24T07:28:03.357Z,3.78
2022-12-24T07:30:49.025Z,3.76
2022-12-24T07:33:34.672Z,3.77
2022-12-24T07:36:22.049Z,3.85
2022-12-24T07:39:07.630Z,3.87
2022-12-24T07:41:53.717Z,3.96
2022-12-24T07:44:39.758Z,4.03
2022-12-24T07:47:25.451Z,4.09
2022-12-24T07:50:11.550Z,4.15
2022-12-24T07:52:57.611Z,4.21
2022-12-24T07:55:44.191Z,4.27
2022-12-24T07:58:30.037Z,4.26
2022-12-24T08:01:15.774Z,4.30
2022-12-24T08:04:01.575Z,4.32
2022-12-24T08:06:47.701Z,4.34
2022-12-24T08:09:38.396Z,4.36
2022-12-24T08:12:24.642Z,4.35
2022-12-24T08:15:10.727Z,4.35
2022-12-24T08:17:56.590Z,4.35
2022-12-24T08:20:42.389Z,4.39
2022-12-24T08:23:28.103Z,4.40
2022-12-24T08:26:13.939Z,4.44
2022-12-24T08:28:59.454Z,4.52
2022-12-24T08:31:45.276Z,4.60
2022-12-24T08:34:31.200Z,4.70
2022-12-24T08:37:16.992Z,4.79
2022-12-24T08:40:02.947Z,4.87
2022-12-24T08:42:48.909Z,4.92
2022-12-24T08:45:40.020Z,4.96
2022-12-24T08:48:26.706Z,5.00
2022-12-24T08:51:12.866Z,5.04
2022-12-24T08:53:58.498Z,5.05
2022-12-24T08:56:45.361Z,5.11
2022-12-24T08:59:30.990Z,5.12
2022-12-24T09:02:17.014Z,5.17
2022-12-24T09:05:02.887Z,5.17
2022-12-24T09:07:49.170Z,5.22
2022-12-24T09:10:35.175Z,5.26
2022-12-24T09:13:21.171Z,5.32
2022-12-24T09:16:07.910Z,5.37
2022-12-24T09:18:53.925Z,5.40
2022-12-24T09:21:39.617Z,5.38
2022-12-24T09:24:25.417Z,5.40
2022-12-24T09:27:11.163Z,5.39
2022-12-24T09:29:57.146Z,5.36
2022-12-24T09:32:43.377Z,5.43
2022-12-24T09:35:29.307Z,5.46
2022-12-24T09:38:16.002Z,5.49
2022-12-24T09:41:11.763Z,5.52
2022-12-24T09:44:16.616Z,5.56
2022-12-24T09:47:28.967Z,5.63
2022-12-24T09:50:33.929Z,5.90
2022-12-24T09:53:51.641Z,6.17
2022-12-24T09:56:41.556Z,6.47
2022-12-24T09:59:48.266Z,6.73
2022-12-24T10:02:37.242Z,7.06
2022-12-24T10:05:36.528Z,7.34
2022-12-24T10:08:45.167Z,7.65
2022-12-24T10:12:15.422Z,7.98
2022-12-24T10:15:25.455Z,8.35
2022-12-24T10:18:21.780Z,8.69
2022-12-24T10:21:15.151Z,9.06
2022-12-24T10:24:08.662Z,9.45
2022-12-24T10:27:16.876Z,9.86
2022-12-24T10:30:17.412Z,10.28
2022-12-24T10:33:18.813Z,10.74
2022-12-24T10:36:11.881Z,11.15
2022-12-24T10:39:00.165Z,11.65
2022-12-24T10:41:49.425Z,12.11
2022-12-24T10:44:36.137Z,12.48
2022-12-24T10:47:22.826Z,12.72
2022-12-24T10:50:17.782Z,13.03
2022-12-24T10:53:19.729Z,13.34
2022-12-24T10:56:14.262Z,13.59
2022-12-24T10:59:00.720Z,13.69
2022-12-24T11:01:48.366Z,13.70
2022-12-24T11:04:47.282Z,13.65
2022-12-24T11:07:33.389Z,13.52
2022-12-24T11:10:23.934Z,13.36
2022-12-24T11:13:39.792Z,13.17
2022-12-24T11:16:32.126Z,13.02
2022-12-24T11:19:24.441Z,12.93
2022-12-24T11:22:28.286Z,12.80
2022-12-24T11:25:22.398Z,12.70
2022-12-24T11:28:28.978Z,12.55
2022-12-24T11:31:24.308Z,12.44
2022-12-24T11:34:33.068Z,12.40
2022-12-24T11:37:21.931Z,12.38
2022-12-24T11:40:21.337Z,12.30
2022-12-24T11:43:21.968Z,12.31
2022-12-24T11:46:32.156Z,12.31
2022-12-24T11:49:24.881Z,12.29
2022-12-24T11:52:10.459Z,12.28
2022-12-24T11:55:50.400Z,12.30
2022-12-24T11:58:56.601Z,12.34
2022-12-24T12:01:50.895Z,12.36
2022-12-24T12:04:37.343Z,12.34
2022-12-24T12:07:27.148Z,12.28
2022-12-24T12:10:19.848Z,12.19
2022-12-24T12:13:18.221Z,12.11
2022-12-24T12:17:00.751Z,12.00
2022-12-24T12:20:04.462Z,11.90
2022-12-24T12:23:14.816Z,11.82
2022-12-24T12:26:13.708Z,11.76
2022-12-24T12:29:01.957Z,11.70
2022-12-24T12:31:58.041Z,11.67
2022-12-24T12:35:15.330Z,11.63
2022-12-24T12:38:05.396Z,11.57
2022-12-24T12:41:12.326Z,11.50
2022-12-24T12:44:16.861Z,11.45
2022-12-24T12:47:05.592Z,11.38
2022-12-24T12:50:11.443Z,11.32
2022-12-24T12:53:03.264Z,11.27
2022-12-24T12:56:11.269Z,11.16
2022-12-24T12:59:04.827Z,11.18
2022-12-24T13:02:03.934Z,11.13
2022-12-24T13:05:19.553Z,11.07
2022-12-24T13:08:35.346Z,11.02
2022-12-24T13:11:27.381Z,10.99
2022-12-24T13:14:42.133Z,10.92
2022-12-24T13:17:43.278Z,10.87
2022-12-24T13:20:29.968Z,10.86
2022-12-24T13:23:24.150Z,10.85
2022-12-24T13:26:12.982Z,10.84
2022-12-24T13:29:36.343Z,10.80
2022-12-24T13:32:22.349Z,10.79
2022-12-24T13:35:36.954Z,10.76
2022-12-24T13:38:29.962Z,10.72
2022-12-24T13:41:41.075Z,10.70
2022-12-24T13:44:32.918Z,10.67
2022-12-24T13:47:25.266Z,10.63
2022-12-24T13:50:58.771Z,10.56
2022-12-24T13:53:47.067Z,10.52
2022-12-24T13:56:36.820Z,10.48
2022-12-24T13:59:22.793Z,10.46
2022-12-24T14:02:20.134Z,10.43
2022-12-24T14:05:21.261Z,10.38
2022-12-24T14:08:11.302Z,10.39
2022-12-24T14:11:23.045Z,10.34
2022-12-24T14:14:12.044Z,10.32
2022-12-24T14:17:00.638Z,10.30
2022-12-24T14:19:49.871Z,10.27
2022-12-24T14:22:42.146Z,10.25
2022-12-24T14:25:28.592Z,10.23
2022-12-24T14:28:19.296Z,10.19
2022-12-24T14:31:06.737Z,10.15
2022-12-24T14:33:52.803Z,10.15
2022-12-24T14:36:39.608Z,10.16
2022-12-24T14:39:34.740Z,10.14
2022-12-24T14:42:39.458Z,10.12
2022-12-24T14:45:34.178Z,10.09
2022-12-24T14:48:36.752Z,10.07
2022-12-24T14:51:36.851Z,10.05
2022-12-24T14:54:52.156Z,10.02
2022-12-24T14:57:38.093Z,9.99
2022-12-24T15:00:26.404Z,9.95
2022-12-24T15:03:17.610Z,9.90
2022-12-24T15:06:06.547Z,9.82
2022-12-24T15:08:52.631Z,9.75
2022-12-24T15:11:38.308Z,9.68
2022-12-24T15:14:25.701Z,9.59
2022-12-24T15:17:12.534Z,9.53
2022-12-24T15:19:59.310Z,9.44
2022-12-24T15:22:47.071Z,9.42
2022-12-24T15:25:33.330Z,9.35
2022-12-24T15:28:22.871Z,9.27
2022-12-24T15:31:12.648Z,9.19
2022-12-24T15:33:59.602Z,9.11
2022-12-24T15:36:45.487Z,9.04
2022-12-24T15:39:31.237Z,9.00
2022-12-24T15:42:19.141Z,9.00
2022-12-24T15:45:11.838Z,8.98
2022-12-24T15:48:23.588Z,8.92
2022-12-24T15:51:10.628Z,8.93
2022-12-24T15:54:03.475Z,8.93
2022-12-24T15:56:49.798Z,8.94
2022-12-24T15:59:36.285Z,8.93
2022-12-24T16:02:35.860Z,8.96
2022-12-24T16:05:35.986Z,8.96
2022-12-24T16:08:24.094Z,8.95
2022-12-24T16:11:32.239Z,8.95
2022-12-24T16:14:20.404Z,8.93
2022-12-24T16:17:18.847Z,8.91
2022-12-24T16:20:07.855Z,8.92
2022-12-24T16:22:54.196Z,8.92
2022-12-24T16:25:39.976Z,8.92
2022-12-24T16:28:26.523Z,8.91
2022-12-24T16:31:18.537Z,8.89
2022-12-24T16:34:05.005Z,8.90
2022-12-24T16:36:51.100Z,8.89
2022-12-24T16:39:36.982Z,8.88
2022-12-24T16:42:41.159Z,8.87
2022-12-24T16:45:29.105Z,8.86
2022-12-24T16:48:22.075Z,8.86
2022-12-24T16:51:08.062Z,8.85
2022-12-24T16:53:53.833Z,8.88
2022-12-24T16:56:44.079Z,8.89
2022-12-24T16:59:29.816Z,8.86
2022-12-24T17:02:19.499Z,8.86
2022-12-24T17:05:05.995Z,8.82
2022-12-24T17:07:51.785Z,8.84
2022-12-24T17:10:37.775Z,8.83
2022-12-24T17:13:23.921Z,8.84
2022-12-24T17:16:09.934Z,8.84
2022-12-24T17:18:56.469Z,8.84
2022-12-24T17:21:42.246Z,8.83
2022-12-24T17:24:28.159Z,8.85
2022-12-24T17:27:14.337Z,8.85
2022-12-24T17:30:00.387Z,8.81
2022-12-24T17:32:46.099Z,8.85
2022-12-24T17:35:31.760Z,8.87
2022-12-24T17:38:17.512Z,8.86
2022-12-24T17:41:10.444Z,8.88
2022-12-24T17:43:56.558Z,8.90
2022-12-24T17:46:43.162Z,8.90
2022-12-24T17:49:29.303Z,8.92
2022-12-24T17:52:15.335Z,8.91
2022-12-24T17:55:01.294Z,8.88
2022-12-24T17:57:46.923Z,8.90
2022-12-24T18:00:33.520Z,8.85
2022-12-24T18:03:19.434Z,8.88
2022-12-24T18:06:08.119Z,8.86
2022-12-24T18:08:54.251Z,8.78
2022-12-24T18:11:40.388Z,8.80
2022-12-24T18:14:26.667Z,8.84
2022-12-24T18:17:12.978Z,8.84
2022-12-24T18:20:00.030Z,8.85
2022-12-24T18:22:46.940Z,8.85
2022-12-24T18:25:33.220Z,8.84
2022-12-24T18:28:19.522Z,8.85
2022-12-24T18:31:08.718Z,8.86
2022-12-24T18:33:55.987Z,8.87
2022-12-24T18:36:42.354Z,8.88
2022-12-24T18:39:28.792Z,8.87
2022-12-24T18:42:15.181Z,8.90
2022-12-24T18:45:01.268Z,8.92
2022-12-24T18:47:47.271Z,8.93
2022-12-24T18:50:33.366Z,8.97
2022-12-24T18:53:19.020Z,8.95
2022-12-24T18:56:16.651Z,8.93
2022-12-24T18:59:04.126Z,8.93
2022-12-24T19:01:50.309Z,8.94
2022-12-24T19:04:36.218Z,8.90
2022-12-24T19:07:21.793Z,8.83
2022-12-24T19:10:08.967Z,8.84
2022-12-24T19:12:55.165Z,8.77
2022-12-24T19:15:42.179Z,8.81
2022-12-24T19:18:28.267Z,8.76
2022-12-24T19:21:15.614Z,8.76
2022-12-24T19:24:01.266Z,8.75
2022-12-24T19:26:48.766Z,8.73
2022-12-24T19:29:34.596Z,8.71
2022-12-24T19:32:20.536Z,8.73
2022-12-24T19:35:06.431Z,8.71
2022-12-24T19:37:52.351Z,8.73
2022-12-24T19:40:38.594Z,8.71
2022-12-24T19:43:24.189Z,8.73
2022-12-24T19:46:12.461Z,8.77
2022-12-24T19:49:00.622Z,8.74
2022-12-24T19:51:46.474Z,8.76
2022-12-24T19:54:32.348Z,8.72
2022-12-24T19:57:18.028Z,8.73
2022-12-24T20:00:06.866Z,8.67
2022-12-24T20:02:58.531Z,8.68
2022-12-24T20:05:44.693Z,8.63
2022-12-24T20:08:31.032Z,8.59
2022-12-24T20:11:20.197Z,8.53
2022-12-24T20:14:06.859Z,8.59
2022-12-24T20:16:52.572Z,8.57
2022-12-24T20:19:38.597Z,8.61
2022-12-24T20:22:24.325Z,8.60
2022-12-24T20:25:10.332Z,8.59
2022-12-24T20:27:56.780Z,8.59
2022-12-24T20:30:42.391Z,8.58
2022-12-24T20:33:28.198Z,8.63
2022-12-24T20:36:16.186Z,8.63
2022-12-24T20:39:02.120Z,8.62
2022-12-24T20:41:47.810Z,8.64
2022-12-24T20:44:35.208Z,8.62
2022-12-24T20:47:21.174Z,8.60
2022-12-24T20:50:07.458Z,8.65
2022-12-24T20:52:53.613Z,8.66
2022-12-24T20:55:39.388Z,8.69
2022-12-24T20:58:25.218Z,8.71
2022-12-24T21:01:19.907Z,8.70
2022-12-24T21:04:07.420Z,8.71
2022-12-24T21:06:54.145Z,8.67
2022-12-24T21:09:41.321Z,8.64
2022-12-24T21:12:45.622Z,8.62
2022-12-24T21:15:36.980Z,8.62
2022-12-24T21:18:22.551Z,8.57
2022-12-24T21:21:08.201Z,8.55
2022-12-24T21:23:55.754Z,8.54
2022-12-24T21:26:41.544Z,8.51
2022-12-24T21:29:27.508Z,8.50
2022-12-24T21:32:13.371Z,8.47
2022-12-24T21:34:58.953Z,8.45
2022-12-24T21:37:44.806Z,8.42
2022-12-24T21:40:30.532Z,8.35
2022-12-24T21:43:16.278Z,8.40
2022-12-24T21:46:06.776Z,8.39
2022-12-24T21:49:14.073Z,8.39
2022-12-24T21:52:00.497Z,8.39
2022-12-24T21:54:46.682Z,8.40
2022-12-24T21:57:52.536Z,8.42
2022-12-24T22:00:39.599Z,8.40
2022-12-24T22:03:25.258Z,8.42
2022-12-24T22:06:34.307Z,8.43
2022-12-24T22:09:38.682Z,8.45
2022-12-24T22:12:25.491Z,8.46
2022-12-24T22:15:11.574Z,8.46
2022-12-24T22:17:57.312Z,8.47
2022-12-24T22:20:44.739Z,8.50
2022-12-24T22:23:30.438Z,8.50
2022-12-24T22:26:17.786Z,8.52
2022-12-24T22:29:06.931Z,8.52
2022-12-24T22:31:52.551Z,8.52
2022-12-24T22:34:38.110Z,8.52
2022-12-24T22:37:23.786Z,8.51
2022-12-24T22:40:10.876Z,8.55
2022-12-24T22:42:58.144Z,8.53
2022-12-24T22:45:43.987Z,8.57
2022-12-24T22:48:29.718Z,8.57
2022-12-24T22:51:17.624Z,8.57
2022-12-24T22:54:04.044Z,8.56
2022-12-24T22:56:49.739Z,8.53
2022-12-24T22:59:35.427Z,8.59
2022-12-24T23:02:27.809Z,8.56
2022-12-24T23:05:15.541Z,8.62
2022-12-24T23:08:01.403Z,8.59
2022-12-24T23:10:47.218Z,8.62
2022-12-24T23:13:51.679Z,8.63
2022-12-24T23:16:37.827Z,8.62
2022-12-24T23:19:23.604Z,8.61
2022-12-24T23:22:10.676Z,8.60
2022-12-24T23:24:56.396Z,8.62
2022-12-24T23:27:42.000Z,8.61
2022-12-24T23:30:27.618Z,8.63
2022-12-24T23:33:13.308Z,8.64
2022-12-24T23:35:59.038Z,8.64
2022-12-24T23:38:44.805Z,8.61
2022-12-24T23:41:31.076Z,8.67
2022-12-24T23:44:17.062Z,8.67
2022-12-24T23:47:02.897Z,8.67
2022-12-24T23:49:48.774Z,8.64
2022-12-24T23:52:34.404Z,8.66
2022-12-24T23:55:20.210Z,8.59
2022-12-24T23:58:07.058Z,8.68
